Toronto, Canada
Current Conditions -  °F | °C
As of 5:00 PM on Friday 19 Dec 2014 (Local Time) from CYYZ Reporting Station
Broken Clouds Broken Clouds  
Wind Chill: 17°   Ceiling: 12000
Heat Index: 28°   Visibility: 15mi
Dew Point: 19°   Wind: 16mph
Humidity: 69%   Direction: 340°NNW
Pressure: 30.21"   Gusts: NA
Location:  43.65°N, 79.39°W
Report Text: CYYZ 192200Z 34014KT 15SM SCT080 BKN120 M02/M07 A3021 RMK AC3AC3 SLP238
Loading
Personal Weather Stations






























Interactive Weather Map New forecast layout! Learn more

10-Day Weather Forecast

Advertisements
Track Severe Weather on mobile